Time;durP1;ratioP1;P1;durP2;ratioP2;P2;SDS_P1;SDS_P2;PMS_P1;PMS_P2;Temp;Humidity;BMP_temperature;BMP_pressure;BME280_temperature;BME280_humidity;BME280_pressure;Samples;Min_cycle;Max_cycle;Signal;HPM_P1;HPM_P2
2022/04/16 00:01:10;;;;;;;10.10;3.20;;;;;;;7.18;80.88;99165.75;108054;1279;22528;-75
2022/04/16 00:03:41;;;;;;;20.00;6.60;;;;;;;7.12;81.00;99169.13;107914;1281;22622;-74
2022/04/16 00:06:12;;;;;;;5.80;3.20;;;;;;;7.06;81.24;99168.67;107979;1278;22541;-73
2022/04/16 00:08:42;;;;;;;10.30;4.50;;;;;;;6.98;81.46;99174.05;108026;1279;23417;-74
2022/04/16 00:11:09;;;;;;;17.20;6.30;;;;;;;6.89;81.39;99173.59;107992;1279;22540;-74
2022/04/16 00:13:40;;;;;;;13.20;6.10;;;;;;;6.83;81.02;99175.40;108061;1279;22570;-74
2022/04/16 00:16:10;;;;;;;8.30;3.80;;;;;;;6.76;80.83;99177.92;107971;1279;22570;-73
2022/04/16 00:18:40;;;;;;;6.70;3.10;;;;;;;6.74;80.74;99174.52;108024;1278;22535;-74
2022/04/16 00:21:12;;;;;;;6.90;3.70;;;;;;;6.68;80.66;99176.00;108030;1279;23961;-74
2022/04/16 00:23:42;;;;;;;5.50;3.10;;;;;;;6.69;80.85;99176.65;107988;1279;24161;-73
2022/04/16 00:26:12;;;;;;;6.60;3.40;;;;;;;6.59;80.73;99180.16;107957;1279;22598;-74
2022/04/16 00:28:42;;;;;;;6.90;3.30;;;;;;;6.53;80.59;99180.58;108031;1279;22568;-74
2022/04/16 00:31:14;;;;;;;5.60;3.10;;;;;;;6.50;80.35;99185.20;108022;1279;22648;-74
2022/04/16 00:33:45;;;;;;;7.10;3.30;;;;;;;6.46;80.51;99185.73;107967;1279;25121;-74
2022/04/16 00:36:16;;;;;;;6.70;3.30;;;;;;;6.40;80.81;99184.20;107995;1279;22562;-73
2022/04/16 00:38:43;;;;;;;7.80;3.70;;;;;;;6.39;80.95;99187.89;108026;1279;24102;-73
2022/04/16 00:41:14;;;;;;;5.40;3.30;;;;;;;6.33;80.96;99191.23;107964;1278;23343;-74
2022/04/16 00:43:43;;;;;;;5.20;3.10;;;;;;;6.30;80.69;99189.95;108278;1279;25416;-73
2022/04/16 00:46:13;;;;;;;6.40;3.70;;;;;;;6.22;80.71;99197.55;107986;1279;22547;-73
2022/04/16 00:48:43;;;;;;;6.30;3.50;;;;;;;6.19;80.56;99191.61;108060;1279;22559;-74
2022/04/16 00:51:14;;;;;;;6.40;3.90;;;;;;;6.17;80.42;99192.41;108105;1279;22547;-73
2022/04/16 00:53:44;;;;;;;7.10;3.70;;;;;;;6.13;80.73;99194.09;108237;1279;22681;-75
2022/04/16 00:56:15;;;;;;;6.50;4.30;;;;;;;6.07;80.87;99197.96;108297;1279;22566;-74
2022/04/16 00:58:45;;;;;;;6.20;4.00;;;;;;;6.01;81.08;99195.05;108317;1279;22541;-75
2022/04/16 01:01:15;;;;;;;5.60;3.90;;;;;;;5.98;81.23;99202.25;108350;1279;24110;-75
2022/04/16 01:03:47;;;;;;;7.30;4.00;;;;;;;5.89;81.38;99205.37;108258;1279;22649;-75
2022/04/16 01:06:17;;;;;;;7.20;4.20;;;;;;;5.78;81.28;99208.67;108322;1279;22559;-75
2022/04/16 01:08:48;;;;;;;6.80;4.00;;;;;;;5.72;81.22;99206.49;108289;1279;23980;-74
2022/04/16 01:11:18;;;;;;;7.30;4.50;;;;;;;5.73;81.28;99212.33;108294;1279;23975;-75
2022/04/16 01:13:48;;;;;;;7.20;4.20;;;;;;;5.69;81.70;99212.65;108306;1279;22663;-75
2022/04/16 01:16:18;;;;;;;6.00;3.70;;;;;;;5.69;82.06;99217.84;108273;1279;24208;-75
2022/04/16 01:18:48;;;;;;;5.70;3.40;;;;;;;5.66;81.89;99218.27;108323;1279;23866;-74
2022/04/16 01:21:19;;;;;;;8.50;4.80;;;;;;;5.63;81.97;99223.38;108328;1279;22595;-75
2022/04/16 01:23:49;;;;;;;6.10;3.30;;;;;;;5.55;81.80;99226.45;108240;1279;22542;-75
2022/04/16 01:26:22;;;;;;;6.80;4.00;;;;;;;5.52;81.48;99225.34;108274;1279;22633;-75
2022/04/16 01:28:52;;;;;;;7.20;4.30;;;;;;;5.48;82.00;99225.98;108253;1279;22562;-74
2022/04/16 01:31:22;;;;;;;7.50;4.30;;;;;;;5.47;82.17;99225.53;108271;1279;22678;-75
2022/04/16 01:33:52;;;;;;;7.30;4.30;;;;;;;5.46;82.65;99227.27;108277;1279;22569;-75
2022/04/16 01:36:24;;;;;;;6.20;3.70;;;;;;;5.46;82.67;99225.04;108267;1279;22644;-75
2022/04/16 01:38:54;;;;;;;7.40;3.90;;;;;;;5.41;82.66;99230.23;108309;1279;22592;-75
2022/04/16 01:41:25;;;;;;;6.60;3.80;;;;;;;5.37;82.53;99230.40;108294;1279;22542;-75
2022/04/16 01:43:56;;;;;;;6.20;4.20;;;;;;;5.29;82.53;99235.84;108267;1279;23998;-75
2022/04/16 01:46:27;;;;;;;7.10;4.70;;;;;;;5.31;82.22;99234.54;108272;1279;24415;-75
2022/04/16 01:48:57;;;;;;;7.60;4.70;;;;;;;5.33;82.40;99238.29;108158;1279;23463;-75
2022/04/16 01:51:27;;;;;;;6.30;4.20;;;;;;;5.34;83.01;99239.64;108038;1279;22536;-74
2022/04/16 01:53:57;;;;;;;9.10;4.70;;;;;;;5.32;82.80;99246.44;107960;1279;23926;-75
2022/04/16 01:56:28;;;;;;;6.50;4.00;;;;;;;5.33;82.84;99245.38;107977;1278;22668;-75
2022/04/16 01:58:58;;;;;;;6.60;3.90;;;;;;;5.31;82.60;99247.16;107786;1279;345907;-74
2022/04/16 02:01:28;;;;;;;5.80;3.70;;;;;;;5.27;82.61;99248.70;108027;1279;22570;-74
2022/04/16 02:03:59;;;;;;;6.30;3.90;;;;;;;5.27;82.48;99249.88;107972;1279;24452;-75
2022/04/16 02:06:29;;;;;;;5.40;3.10;;;;;;;5.27;82.49;99256.26;107975;1279;22541;-75
2022/04/16 02:09:01;;;;;;;5.40;3.00;;;;;;;5.29;82.32;99258.96;107991;1279;22555;-75
2022/04/16 02:11:31;;;;;;;5.10;2.80;;;;;;;5.22;82.09;99260.27;107964;1279;22550;-75
2022/04/16 02:14:02;;;;;;;4.80;2.90;;;;;;;5.12;81.97;99259.02;107955;1279;23954;-75
2022/04/16 02:16:32;;;;;;;7.00;3.40;;;;;;;5.09;81.90;99257.40;107963;1279;22611;-75
2022/04/16 02:19:02;;;;;;;5.30;3.00;;;;;;;5.13;81.87;99260.73;108065;1279;22864;-75
2022/04/16 02:21:32;;;;;;;6.70;3.90;;;;;;;5.09;81.89;99263.29;108051;1279;22604;-75
2022/04/16 02:24:02;;;;;;;8.40;4.20;;;;;;;5.09;82.29;99265.70;108043;1279;22539;-75
2022/04/16 02:26:33;;;;;;;7.30;4.60;;;;;;;5.03;82.42;99269.34;107985;1279;22553;-75
2022/04/16 02:29:04;;;;;;;6.60;3.70;;;;;;;5.00;82.43;99273.05;107982;1278;22543;-75
2022/04/16 02:31:37;;;;;;;7.50;4.50;;;;;;;4.93;82.55;99274.16;107964;1279;22559;-74
2022/04/16 02:34:07;;;;;;;;;;;;;;;4.85;82.53;99272.83;108008;1279;23960;-74
2022/04/16 02:36:35;;;;;;;7.30;4.30;;;;;;;4.79;82.28;99276.33;107969;1279;22578;-74
2022/04/16 02:39:05;;;;;;;9.00;5.10;;;;;;;4.78;82.06;99279.98;107978;1279;23415;-74
2022/04/16 02:41:34;;;;;;;9.00;5.40;;;;;;;4.78;82.32;99280.50;107992;1279;22563;-74
2022/04/16 02:44:04;;;;;;;7.20;4.90;;;;;;;4.77;82.49;99281.21;108007;1279;22559;-74
2022/04/16 02:49:22;;;;;;;8.90;5.10;;;;;;;4.77;82.72;99287.10;107993;1279;22557;-75
2022/04/16 02:51:53;;;;;;;8.90;4.80;;;;;;;4.71;82.64;99286.77;108013;1279;22594;-74
2022/04/16 02:54:25;;;;;;;10.40;5.40;;;;;;;4.64;82.45;99288.02;108020;1279;22600;-74
2022/04/16 02:56:58;;;;;;;9.30;4.50;;;;;;;4.61;82.45;99291.38;108010;1279;23925;-75
2022/04/16 02:59:28;;;;;;;9.30;4.20;;;;;;;4.64;82.51;99295.27;107984;1279;25290;-75
2022/04/16 03:01:59;;;;;;;7.60;4.20;;;;;;;4.65;82.76;99301.45;107974;1279;22567;-74
2022/04/16 03:04:29;;;;;;;8.50;3.80;;;;;;;4.58;82.98;99306.11;107996;1279;22604;-75
2022/04/16 03:06:59;;;;;;;7.10;3.50;;;;;;;4.54;83.11;99306.45;107965;1279;24306;-74
2022/04/16 03:09:29;;;;;;;5.20;2.90;;;;;;;4.49;82.90;99311.92;108049;1279;22683;-74
2022/04/16 03:11:59;;;;;;;5.00;2.70;;;;;;;4.45;82.90;99312.73;108054;1279;22586;-74
2022/04/16 03:17:34;;;;;;;7.50;3.20;;;;;;;4.27;82.59;99321.72;108019;1279;25131;-74
2022/04/16 03:20:07;;;;;;;5.10;2.90;;;;;;;4.23;83.21;99328.21;107989;1279;22595;-74
2022/04/16 03:22:39;;;;;;;5.40;2.50;;;;;;;4.22;83.19;99326.85;108045;1279;22560;-75
2022/04/16 03:25:09;;;;;;;5.40;2.30;;;;;;;4.14;83.00;99336.91;107962;1279;22761;-74
2022/04/16 03:27:39;;;;;;;4.10;1.90;;;;;;;4.08;82.75;99337.76;108032;1279;22599;-75
2022/04/16 03:30:09;;;;;;;5.30;2.30;;;;;;;4.02;82.73;99343.45;107990;1279;22535;-74
2022/04/16 03:32:40;;;;;;;4.40;2.20;;;;;;;3.99;82.58;99347.84;108019;1279;22538;-74
2022/04/16 03:35:10;;;;;;;5.80;2.50;;;;;;;3.90;82.84;99351.70;108059;1279;23689;-74
2022/04/16 03:37:40;;;;;;;5.50;2.60;;;;;;;3.85;82.91;99351.17;107987;1279;22584;-74
2022/04/16 03:40:12;;;;;;;5.40;2.70;;;;;;;3.83;82.99;99354.81;107963;1279;22603;-74
2022/04/16 03:42:47;;;;;;;5.00;2.70;;;;;;;3.83;82.60;99355.70;108047;1279;22531;-75
2022/04/16 03:45:23;;;;;;;5.10;2.60;;;;;;;3.84;82.68;99357.73;108029;1279;22623;-75
2022/04/16 03:47:55;;;;;;;5.40;2.80;;;;;;;3.90;82.58;99361.00;108037;1279;22580;-75
2022/04/16 03:50:27;;;;;;;5.30;2.90;;;;;;;3.90;82.84;99361.19;108002;1278;23359;-75
2022/04/16 03:52:58;;;;;;;7.00;2.40;;;;;;;3.90;83.41;99366.69;107937;1279;22572;-75
2022/04/16 04:01:09;;;;;;;5.40;1.90;;;;;;;3.73;82.84;99372.32;108046;1279;24076;-74
2022/04/16 04:03:37;;;;;;;4.60;2.10;;;;;;;3.76;82.37;99373.95;108023;1279;24583;-75
2022/04/16 04:06:07;;;;;;;4.50;2.30;;;;;;;3.71;82.68;99377.36;107954;1279;22659;-74
2022/04/16 04:08:37;;;;;;;6.10;3.10;;;;;;;3.66;82.99;99382.48;107962;1279;23973;-75
2022/04/16 04:11:07;;;;;;;6.50;2.80;;;;;;;3.69;83.51;99384.30;108075;1279;22550;-75
2022/04/16 04:13:37;;;;;;;5.20;2.70;;;;;;;3.70;83.49;99383.92;108028;1279;23041;-75
2022/04/16 04:16:07;;;;;;;7.40;3.40;;;;;;;3.70;83.31;99387.38;108003;1279;26680;-75
2022/04/16 04:18:37;;;;;;;7.30;3.50;;;;;;;3.68;83.18;99390.87;108028;1279;23999;-75
2022/04/16 04:21:07;;;;;;;7.10;4.20;;;;;;;3.67;83.06;99386.92;108046;1279;22591;-75
2022/04/16 04:23:37;;;;;;;7.50;3.70;;;;;;;3.72;83.20;99387.83;107999;1279;22553;-75
2022/04/16 04:26:08;;;;;;;6.60;3.70;;;;;;;3.77;83.49;99388.39;107981;1279;22544;-75
2022/04/16 04:28:37;;;;;;;9.30;4.60;;;;;;;3.79;83.91;99396.45;107959;1279;22559;-75
2022/04/16 04:31:10;;;;;;;6.50;4.00;;;;;;;3.75;84.16;99394.64;108006;1279;22554;-75
2022/04/16 04:33:37;;;;;;;5.50;3.70;;;;;;;3.76;84.10;99396.52;107994;1279;23638;-74
2022/04/16 04:36:07;;;;;;;6.70;3.80;;;;;;;3.77;83.93;99396.30;107987;1279;22540;-75
2022/04/16 04:38:37;;;;;;;6.60;3.70;;;;;;;3.78;83.67;99402.48;108007;1279;24287;-75
2022/04/16 04:41:07;;;;;;;7.50;3.50;;;;;;;3.82;83.57;99404.65;108004;1279;22557;-74
2022/04/16 04:43:37;;;;;;;5.90;3.30;;;;;;;3.83;83.62;99410.13;108042;1279;25394;-75
2022/04/16 04:46:08;;;;;;;5.60;3.40;;;;;;;3.86;84.00;99408.65;108028;1279;22554;-74
2022/04/16 04:48:38;;;;;;;5.90;2.60;;;;;;;3.92;84.29;99413.52;108008;1279;24240;-74
2022/04/16 04:51:08;;;;;;;6.30;3.40;;;;;;;3.85;84.01;99421.63;108010;1279;22535;-74
2022/04/16 04:53:38;;;;;;;5.40;2.60;;;;;;;3.77;83.92;99420.42;108006;1279;24324;-74
2022/04/16 04:56:08;;;;;;;8.00;4.30;;;;;;;3.80;83.71;99421.92;108013;1279;27698;-74
2022/04/16 04:58:38;;;;;;;7.60;4.10;;;;;;;3.78;83.92;99421.61;108009;1279;24280;-74
2022/04/16 05:01:08;;;;;;;6.50;4.00;;;;;;;3.87;84.23;99419.66;108014;1279;22614;-74
2022/04/16 05:03:38;;;;;;;8.00;5.60;;;;;;;3.88;84.70;99420.15;108001;1279;22540;-74
2022/04/16 05:06:08;;;;;;;9.40;5.40;;;;;;;3.90;84.45;99417.88;108046;1279;22669;-74
2022/04/16 05:08:38;;;;;;;6.70;3.80;;;;;;;3.93;84.67;99417.13;108047;1279;24308;-75
2022/04/16 05:11:08;;;;;;;10.20;5.90;;;;;;;3.87;84.70;99421.75;108017;1279;22552;-75
2022/04/16 05:13:38;;;;;;;8.50;5.80;;;;;;;3.89;84.24;99419.96;108016;1279;25100;-75
2022/04/16 05:16:08;;;;;;;12.10;6.30;;;;;;;3.97;84.43;99428.56;108011;1279;22555;-74
2022/04/16 05:18:38;;;;;;;12.80;8.00;;;;;;;3.99;84.67;99426.96;108026;1279;22564;-74
2022/04/16 05:21:08;;;;;;;11.60;6.90;;;;;;;4.00;84.48;99427.77;108001;1279;24277;-74
2022/04/16 05:23:39;;;;;;;9.30;6.20;;;;;;;4.06;84.62;99430.39;107971;1279;22715;-74
2022/04/16 05:26:10;;;;;;;12.40;6.50;;;;;;;3.97;84.57;99431.30;108013;1279;22646;-74
2022/04/16 05:28:39;;;;;;;13.60;7.10;;;;;;;3.93;84.39;99435.54;108379;1277;22537;-75
2022/04/16 05:31:10;;;;;;;12.00;7.60;;;;;;;3.95;84.44;99438.08;107999;1278;22540;-74
2022/04/16 05:36:27;;;;;;;12.90;7.20;;;;;;;3.97;84.83;99449.23;108017;1279;22555;-74
2022/04/16 05:38:57;;;;;;;8.40;5.90;;;;;;;3.97;84.87;99455.25;108047;1279;22528;-75
2022/04/16 05:41:27;;;;;;;9.90;5.70;;;;;;;3.93;84.95;99458.45;108042;1279;22537;-75
2022/04/16 05:43:58;;;;;;;8.90;6.10;;;;;;;3.91;84.94;99462.84;108025;1279;22884;-75
2022/04/16 05:46:28;;;;;;;10.40;6.00;;;;;;;3.84;84.81;99465.23;108027;1278;23614;-75
2022/04/16 05:48:58;;;;;;;9.90;5.70;;;;;;;3.85;84.62;99470.23;108069;1279;23964;-75
2022/04/16 05:51:28;;;;;;;11.70;7.60;;;;;;;3.91;84.82;99467.48;108036;1279;22538;-75
2022/04/16 05:54:02;;;;;;;11.50;7.10;;;;;;;3.87;85.01;99474.98;107983;1279;22729;-74
2022/04/16 05:56:34;;;;;;;12.00;7.00;;;;;;;3.91;85.23;99477.15;108032;1279;22594;-74
2022/04/16 05:59:04;;;;;;;11.90;7.20;;;;;;;3.92;85.21;99480.71;108236;1279;22526;-74
2022/04/16 06:01:35;;;;;;;15.40;8.50;;;;;;;3.94;85.34;99484.27;107982;1279;23393;-74
2022/04/16 06:04:04;;;;;;;12.40;7.00;;;;;;;3.90;84.79;99484.92;107993;1279;23338;-74
2022/04/16 06:06:34;;;;;;;19.90;9.40;;;;;;;3.93;84.79;99489.67;108110;1279;22569;-74
2022/04/16 06:09:03;;;;;;;22.30;12.00;;;;;;;3.89;85.13;99490.11;108069;1279;22543;-74
2022/04/16 06:11:33;;;;;;;17.30;10.40;;;;;;;3.92;84.95;99492.27;108021;1279;22557;-81
2022/04/16 06:14:03;;;;;;;12.90;7.50;;;;;;;3.94;85.42;99499.10;107992;1279;22557;-75
2022/04/16 06:16:32;;;;;;;15.30;9.10;;;;;;;3.93;85.37;99497.23;108005;1279;22557;-75
2022/04/16 06:19:02;;;;;;;14.20;9.10;;;;;;;3.90;84.89;99495.06;108281;1279;22597;-75
2022/04/16 06:21:32;;;;;;;14.80;9.30;;;;;;;3.91;84.95;99498.67;108032;1279;22543;-75
2022/04/16 06:24:01;;;;;;;15.30;9.10;;;;;;;3.98;84.89;99500.91;108028;1279;22550;-75
2022/04/16 06:26:31;;;;;;;17.90;9.00;;;;;;;3.97;84.70;99508.69;107989;1279;22535;-75
2022/04/16 06:29:01;;;;;;;13.00;7.80;;;;;;;4.00;84.91;99511.71;108047;1279;22616;-75
2022/04/16 06:31:31;;;;;;;14.50;8.80;;;;;;;4.03;84.86;99519.57;108022;1278;22560;-75
2022/04/16 06:34:01;;;;;;;15.70;10.00;;;;;;;3.99;84.60;99524.33;108035;1279;22567;-74
2022/04/16 06:36:30;;;;;;;15.30;8.70;;;;;;;3.92;84.71;99525.38;107993;1279;22681;-73
2022/04/16 06:39:00;;;;;;;12.10;8.40;;;;;;;3.94;84.64;99526.50;108136;1279;22722;-74
2022/04/16 06:41:30;;;;;;;15.50;8.60;;;;;;;4.00;84.61;99524.98;108001;1279;22550;-74
2022/04/16 06:43:59;;;;;;;13.20;7.80;;;;;;;3.99;84.59;99526.89;107954;1279;22600;-77
2022/04/16 06:46:29;;;;;;;14.30;9.10;;;;;;;3.94;84.63;99533.24;108032;1279;24115;-77
2022/04/16 06:48:59;;;;;;;14.60;9.00;;;;;;;3.91;84.74;99536.06;108067;1279;22573;-76
2022/04/16 06:51:29;;;;;;;18.70;11.30;;;;;;;3.86;84.98;99535.66;108005;1279;23463;-76
2022/04/16 06:54:00;;;;;;;23.70;12.00;;;;;;;3.90;84.26;99539.37;108045;1279;24538;-76
2022/04/16 06:56:29;;;;;;;29.60;14.30;;;;;;;3.87;84.65;99542.18;108049;1279;24416;-74
2022/04/16 06:58:56;;;;;;;23.50;11.10;;;;;;;3.90;84.49;99548.52;108048;1279;24153;-74
2022/04/16 07:01:26;;;;;;;52.70;22.10;;;;;;;3.93;84.73;99550.85;108024;1279;25259;-74
2022/04/16 07:03:56;;;;;;;23.40;11.60;;;;;;;3.99;84.64;99549.15;107994;1279;22554;-77
2022/04/16 07:06:26;;;;;;;40.30;17.90;;;;;;;4.00;84.63;99553.77;107992;1279;22654;-76
2022/04/16 07:08:55;;;;;;;77.50;30.70;;;;;;;4.00;84.68;99553.95;108056;1279;22628;-75
2022/04/16 07:11:25;;;;;;;67.40;29.50;;;;;;;4.08;84.15;99555.29;107987;1279;24119;-75
2022/04/16 07:13:55;;;;;;;83.30;33.20;;;;;;;4.15;84.20;99557.20;108041;1279;25373;-73
2022/04/16 07:16:25;;;;;;;78.30;29.00;;;;;;;4.22;84.13;99561.68;108005;1279;24137;-74
2022/04/16 07:18:54;;;;;;;41.10;19.80;;;;;;;4.25;84.28;99555.75;108007;1279;22560;-74
2022/04/16 07:21:24;;;;;;;33.90;18.00;;;;;;;4.25;84.13;99559.88;108033;1279;22576;-74
2022/04/16 07:23:53;;;;;;;41.70;19.10;;;;;;;4.22;84.02;99562.35;108045;1279;22563;-74
2022/04/16 07:26:23;;;;;;;26.70;15.10;;;;;;;4.22;83.46;99561.85;108107;1279;22538;-74
2022/04/16 07:28:53;;;;;;;30.30;14.70;;;;;;;4.27;83.13;99565.54;108373;1279;22665;-73
2022/04/16 07:31:23;;;;;;;36.00;17.60;;;;;;;4.36;83.14;99571.67;108046;1279;22552;-73
2022/04/16 07:33:52;;;;;;;45.10;20.20;;;;;;;4.44;83.31;99571.64;108051;1279;22567;-73
2022/04/16 07:36:22;;;;;;;44.20;19.10;;;;;;;4.52;83.34;99579.02;108067;1280;22563;-74
2022/04/16 07:38:52;;;;;;;21.80;12.50;;;;;;;4.56;82.67;99580.83;107969;1281;22597;-75
2022/04/16 07:41:21;;;;;;;27.10;15.20;;;;;;;4.52;81.72;99578.86;108053;1278;22586;-74
2022/04/16 07:43:51;;;;;;;38.90;18.60;;;;;;;4.48;81.83;99580.83;108006;1279;22686;-75
2022/04/16 07:46:22;;;;;;;34.50;16.20;;;;;;;4.46;81.70;99585.22;108217;1281;22604;-76
2022/04/16 07:48:51;;;;;;;43.90;21.60;;;;;;;4.51;81.60;99585.42;108142;1279;22554;-76
2022/04/16 07:51:20;;;;;;;21.50;14.60;;;;;;;4.51;81.67;99586.80;108256;1280;22540;-76
2022/04/16 07:53:51;;;;;;;49.20;26.20;;;;;;;4.50;81.87;99591.85;108231;1279;22563;-76
2022/04/16 07:56:20;;;;;;;49.70;31.40;;;;;;;4.42;81.49;99590.99;108239;1279;23939;-76
2022/04/16 07:58:50;;;;;;;28.90;17.10;;;;;;;4.41;81.32;99589.82;108272;1279;22592;-76
2022/04/16 08:01:18;;;;;;;21.00;13.60;;;;;;;4.40;81.02;99599.00;108245;1279;22729;-76
2022/04/16 08:03:48;;;;;;;19.30;12.20;;;;;;;4.41;81.01;99603.81;108300;1280;22947;-76
2022/04/16 08:06:18;;;;;;;21.30;14.30;;;;;;;4.40;81.26;99607.11;108299;1279;22620;-76
2022/04/16 08:08:48;;;;;;;32.40;16.00;;;;;;;4.35;81.30;99609.83;108318;1279;23350;-76
2022/04/16 08:11:17;;;;;;;29.90;17.60;;;;;;;4.28;81.08;99613.27;108318;1281;22568;-75
2022/04/16 08:13:45;;;;;;;27.00;17.00;;;;;;;4.25;80.75;99615.05;108277;1281;22545;-75
2022/04/16 08:16:15;;;;;;;22.10;14.50;;;;;;;4.25;80.60;99613.86;108262;1279;22553;-75
2022/04/16 08:18:42;;;;;;;51.40;25.00;;;;;;;4.25;81.12;99620.56;108338;1281;26614;-75
2022/04/16 08:21:11;;;;;;;36.70;20.80;;;;;;;4.31;81.21;99623.89;108291;1281;24123;-76
2022/04/16 08:23:54;;;;;;;31.60;17.20;;;;;;;4.38;81.14;99623.37;108259;1281;22543;-74
2022/04/16 08:26:25;;;;;;;35.80;17.90;;;;;;;4.43;80.84;99626.00;108283;1281;22639;-76
2022/04/16 08:28:54;;;;;;;29.30;16.70;;;;;;;4.44;79.81;99630.45;108281;1279;22540;-82
2022/04/16 08:31:24;;;;;;;31.00;18.90;;;;;;;4.44;79.43;99630.63;108350;1281;22569;-79
2022/04/16 08:33:54;;;;;;;49.00;25.00;;;;;;;4.48;79.78;99632.94;108269;1280;22563;-76
2022/04/16 08:36:24;;;;;;;38.60;22.10;;;;;;;4.60;79.45;99631.43;108274;1281;22550;-74
2022/04/16 08:38:54;;;;;;;47.10;28.30;;;;;;;4.57;79.57;99635.98;108305;1279;22551;-76
2022/04/16 08:41:25;;;;;;;40.90;26.50;;;;;;;4.57;79.20;99634.10;108288;1281;22628;-76
2022/04/16 08:43:56;;;;;;;45.10;26.10;;;;;;;4.65;78.97;99635.10;108292;1281;23931;-74
2022/04/16 08:46:30;;;;;;;28.70;19.60;;;;;;;4.84;78.53;99633.73;108292;1281;22540;-74
2022/04/16 08:49:00;;;;;;;32.10;21.70;;;;;;;5.01;77.82;99639.34;108235;1279;22611;-77
2022/04/16 08:51:29;;;;;;;31.20;20.40;;;;;;;5.14;77.48;99638.65;108268;1279;23983;-76
2022/04/16 08:53:59;;;;;;;30.10;20.30;;;;;;;5.23;77.17;99637.54;108254;1281;22561;-76
2022/04/16 08:56:32;;;;;;;33.80;23.10;;;;;;;5.45;76.56;99640.02;108238;1280;22663;-75
2022/04/16 08:59:01;;;;;;;30.00;20.20;;;;;;;5.80;76.27;99645.05;108261;1280;22891;-75
2022/04/16 09:01:33;;;;;;;28.40;19.60;;;;;;;6.05;76.10;99646.05;108140;1279;22601;-76
2022/04/16 09:04:02;;;;;;;21.40;15.00;;;;;;;6.18;73.10;99645.30;108184;1281;22563;-76
2022/04/16 09:06:32;;;;;;;18.30;14.20;;;;;;;5.97;71.89;99656.14;108217;1281;22613;-76
2022/04/16 09:09:11;;;;;;;15.10;10.60;;;;;;;5.72;72.30;99654.09;108141;1279;22568;-76
2022/04/16 09:11:48;;;;;;;18.10;12.60;;;;;;;5.54;71.49;99658.59;108230;1279;22537;-76
2022/04/16 09:14:16;;;;;;;15.20;10.80;;;;;;;5.37;72.98;99658.20;108265;1281;23677;-76
2022/04/16 09:16:46;;;;;;;16.70;10.90;;;;;;;5.39;73.04;99660.07;108268;1281;22581;-76
2022/04/16 09:19:17;;;;;;;17.20;10.70;;;;;;;5.36;72.36;99665.48;108264;1279;22592;-76
2022/04/16 09:21:47;;;;;;;16.80;11.70;;;;;;;5.27;72.39;99663.84;108261;1279;24709;-76
2022/04/16 09:24:16;;;;;;;17.60;12.30;;;;;;;5.27;72.34;99665.23;108320;1279;22620;-75
2022/04/16 09:26:51;;;;;;;18.60;12.60;;;;;;;5.29;72.53;99668.96;108357;1281;22556;-76
2022/04/16 09:29:24;;;;;;;21.50;13.80;;;;;;;5.41;72.04;99669.17;108269;1279;22607;-76
2022/04/16 09:31:54;;;;;;;14.00;9.60;;;;;;;5.61;72.26;99671.70;108262;1279;22642;-77
2022/04/16 09:34:23;;;;;;;15.00;9.80;;;;;;;5.88;71.51;99674.54;108296;1281;22557;-76
2022/04/16 09:36:54;;;;;;;18.40;12.60;;;;;;;5.98;70.83;99674.96;108224;1279;22726;-76
2022/04/16 09:39:25;;;;;;;20.90;14.60;;;;;;;6.29;70.00;99677.13;108257;1281;22542;-75
2022/04/16 09:41:55;;;;;;;20.00;14.00;;;;;;;6.52;68.89;99674.83;108327;1279;23961;-78
2022/04/16 09:44:27;;;;;;;20.90;14.30;;;;;;;6.72;68.95;99677.29;108263;1280;24131;-76
2022/04/16 09:46:57;;;;;;;19.20;13.70;;;;;;;6.90;67.08;99677.55;108321;1281;22647;-76
2022/04/16 09:49:25;;;;;;;19.40;13.40;;;;;;;7.01;66.78;99674.92;108327;1281;22585;-76
2022/04/16 09:51:59;;;;;;;24.90;17.90;;;;;;;6.99;66.03;99677.94;108298;1281;22589;-76
2022/04/16 09:54:30;;;;;;;;;;;;;;;7.13;66.67;99678.67;108322;1281;22570;-76
2022/04/16 09:57:02;;;;;;;11.00;8.00;;;;;;;7.28;66.05;99687.70;108281;1281;22544;-75
2022/04/16 09:59:35;;;;;;;13.80;9.00;;;;;;;7.22;66.01;99684.59;108257;1281;24115;-76
2022/04/16 10:02:08;;;;;;;14.50;10.00;;;;;;;7.27;65.41;99683.40;108307;1280;22518;-76
2022/04/16 10:04:38;;;;;;;32.20;21.10;;;;;;;7.18;64.47;99684.04;108268;1279;22623;-76
2022/04/16 10:07:10;;;;;;;16.40;12.30;;;;;;;7.16;63.99;99681.35;108309;1281;22552;-75
2022/04/16 10:09:44;;;;;;;15.70;11.20;;;;;;;7.34;64.51;99680.73;108317;1280;22552;-78
2022/04/16 10:15:11;;;;;;;12.00;6.50;;;;;;;7.96;62.88;99681.89;108323;1280;22635;-78
2022/04/16 10:17:51;;;;;;;9.60;6.00;;;;;;;8.13;62.68;99685.58;108315;1279;22552;-76
2022/04/16 10:20:23;;;;;;;15.90;10.50;;;;;;;8.16;61.11;99689.10;108287;1279;22550;-76
2022/04/16 10:22:55;;;;;;;17.50;11.80;;;;;;;8.10;60.03;99690.38;108305;1280;22562;-76
2022/04/16 10:25:32;;;;;;;12.00;7.90;;;;;;;8.30;61.01;99696.89;108287;1279;22563;-76
2022/04/16 10:28:08;;;;;;;11.50;7.50;;;;;;;8.47;58.53;99690.52;108317;1279;24114;-76
2022/04/16 10:30:42;;;;;;;13.60;8.00;;;;;;;8.25;58.11;99695.19;108323;1280;22736;-77
2022/04/16 10:33:24;;;;;;;17.30;9.30;;;;;;;8.03;58.26;99689.59;108276;1281;24011;-76
2022/04/16 10:36:10;;;;;;;12.10;7.90;;;;;;;7.98;58.25;99692.73;108272;1279;22682;-76
2022/04/16 10:38:41;;;;;;;15.80;10.40;;;;;;;8.18;54.79;99691.11;108335;1279;22691;-76
2022/04/16 10:41:18;;;;;;;12.10;8.30;;;;;;;8.25;54.17;99691.87;108276;1279;23975;-76
2022/04/16 10:44:09;;;;;;;13.10;7.30;;;;;;;8.41;54.15;99692.83;108278;1279;22555;-76
2022/04/16 10:46:47;;;;;;;11.20;7.10;;;;;;;8.54;52.50;99684.68;108285;1279;22554;-76
2022/04/16 10:49:16;;;;;;;23.30;12.10;;;;;;;8.59;52.72;99686.18;108315;1280;22541;-76
2022/04/16 10:51:45;;;;;;;18.40;10.60;;;;;;;8.56;51.52;99679.20;108335;1279;22760;-76
2022/04/16 10:54:24;;;;;;;14.30;7.70;;;;;;;8.63;51.58;99680.33;108323;1279;24088;-76
2022/04/16 10:56:54;;;;;;;12.30;6.70;;;;;;;8.92;52.02;99675.27;108257;1279;23983;-77
2022/04/16 10:59:43;;;;;;;12.70;6.70;;;;;;;9.19;51.25;99680.75;108257;1279;23942;-76
2022/04/16 11:02:17;;;;;;;8.00;5.00;;;;;;;9.42;49.90;99676.25;108302;1279;22553;-76
2022/04/16 11:05:10;;;;;;;12.60;6.70;;;;;;;9.40;50.05;99680.68;108318;1279;24230;-76
2022/04/16 11:07:40;;;;;;;10.60;4.50;;;;;;;9.45;49.60;99685.55;108299;1279;22613;-77
2022/04/16 11:10:09;;;;;;;13.00;8.60;;;;;;;9.26;49.15;99686.02;108267;1279;22534;-76
2022/04/16 11:12:38;;;;;;;7.20;4.20;;;;;;;9.21;49.33;99686.39;108303;1278;25255;-76
2022/04/16 11:15:24;;;;;;;9.50;4.30;;;;;;;9.28;49.29;99683.48;108339;1279;22552;-77
2022/04/16 11:17:59;;;;;;;11.20;5.70;;;;;;;9.35;48.83;99678.15;108305;1279;22730;-76
2022/04/16 11:20:28;;;;;;;6.80;3.80;;;;;;;9.39;47.84;99684.57;108303;1279;22567;-77
2022/04/16 11:22:55;;;;;;;7.80;3.80;;;;;;;9.25;48.52;99685.36;108340;1279;22550;-77
2022/04/16 11:25:24;;;;;;;8.00;4.30;;;;;;;9.25;47.95;99692.84;108323;1279;22537;-76
2022/04/16 11:36:12;;;;;;;14.50;8.60;;;;;;;9.35;45.29;99692.56;108340;1279;22552;-78
2022/04/16 11:38:41;;;;;;;9.30;5.70;;;;;;;9.42;45.77;99697.83;108307;1279;22668;-77
2022/04/16 11:41:11;;;;;;;8.00;4.70;;;;;;;9.40;45.38;99700.88;108297;1279;22658;-79
2022/04/16 11:43:47;;;;;;;6.70;3.50;;;;;;;9.54;45.37;99691.75;108290;1279;22557;-76
2022/04/16 11:46:15;;;;;;;8.50;3.70;;;;;;;9.65;45.96;99695.42;108280;1279;24471;-76
2022/04/16 11:48:47;;;;;;;7.60;3.90;;;;;;;9.73;46.11;99706.71;108323;1279;22541;-76
2022/04/16 11:51:15;;;;;;;11.40;6.70;;;;;;;9.58;44.52;99716.10;108273;1279;22614;-76
2022/04/16 11:53:47;;;;;;;10.70;6.80;;;;;;;9.50;45.06;99710.88;108294;1279;22643;-79
2022/04/16 11:56:19;;;;;;;9.20;4.70;;;;;;;9.53;45.53;99713.17;108299;1279;24347;-75
2022/04/16 11:58:51;;;;;;;15.30;8.30;;;;;;;9.30;43.81;99720.25;108310;1279;24246;-76
2022/04/16 12:01:22;;;;;;;11.80;6.60;;;;;;;9.11;43.91;99718.45;108298;1279;24538;-76
2022/04/16 12:03:56;;;;;;;10.40;5.90;;;;;;;9.05;44.94;99720.42;108313;1279;22547;-76
2022/04/16 12:06:23;;;;;;;10.80;5.50;;;;;;;9.19;43.93;99715.30;108324;1279;22540;-76
2022/04/16 12:08:50;;;;;;;7.30;4.00;;;;;;;9.38;43.47;99715.02;108336;1279;22577;-75